Aviation Digital Data Service (ADDS)

Output produced by METARs form (1615 UTC 22 September 2019)
found at http://www.aviationweather.gov/metar/data/
 
METAR text: EDDF 221550Z 21006KT CAVOK 23/09 Q1009 NOSIG
Conditions at: EDDF (FRANKFURT MAIN A, DE) observed 1550 UTC 22 September 2019
Temperature: 23.0°C (73°F)
Dewpoint: 9.0°C (48°F) [RH = 41%]
Pressure (altimeter): 29.79 inches Hg (1009.0 mb)
Winds: from the SSW (210 degrees) at 7 MPH (6 knots; 3.1 m/s)
Visibility: 6 or more miles (10+ km)
Ceiling: ceiling and visibility are OK
Clouds: unknown
Weather: no significant weather observed at this time

METAR text: EDDF 221520Z 18005KT CAVOK 24/09 Q1009 NOSIG
Conditions at: EDDF (FRANKFURT MAIN A, DE) observed 1520 UTC 22 September 2019
Temperature: 24.0°C (75°F)
Dewpoint: 9.0°C (48°F) [RH = 38%]
Pressure (altimeter): 29.79 inches Hg (1009.0 mb)
Winds: from the S (180 degrees) at 6 MPH (5 knots; 2.6 m/s)
Visibility: 6 or more miles (10+ km)
Ceiling: ceiling and visibility are OK
Clouds: unknown
Weather: no significant weather observed at this time

METAR text: EDDF 221450Z 16004KT 130V210 CAVOK 24/09 Q1009 NOSIG
Conditions at: EDDF (FRANKFURT MAIN A, DE) observed 1450 UTC 22 September 2019
Temperature: 24.0°C (75°F)
Dewpoint: 9.0°C (48°F) [RH = 38%]
Pressure (altimeter): 29.79 inches Hg (1009.0 mb)
Winds: from the SSE (160 degrees) at 5 MPH (4 knots; 2.1 m/s)
Visibility: 6 or more miles (10+ km)
Ceiling: ceiling and visibility are OK
Clouds: unknown
Weather: no significant weather observed at this time

METAR text: EDDF 221420Z 14003KT 080V240 CAVOK 25/09 Q1009 NOSIG
Conditions at: EDDF (FRANKFURT MAIN A, DE) observed 1420 UTC 22 September 2019
Temperature: 25.0°C (77°F)
Dewpoint: 9.0°C (48°F) [RH = 36%]
Pressure (altimeter): 29.79 inches Hg (1009.0 mb)
Winds: from the SE (140 degrees) at 3 MPH (3 knots; 1.5 m/s)
Visibility: 6 or more miles (10+ km)
Ceiling: ceiling and visibility are OK
Clouds: unknown
Weather: no significant weather observed at this time

METAR text: EDDF 221350Z VRB04KT CAVOK 26/09 Q1009 NOSIG
Conditions at: EDDF (FRANKFURT MAIN A, DE) observed 1350 UTC 22 September 2019
Temperature: 26.0°C (79°F)
Dewpoint: 9.0°C (48°F) [RH = 34%]
Pressure (altimeter): 29.79 inches Hg (1009.0 mb)
Winds: variable direction winds at 5 MPH (4 knots; 2.1 m/s)
Visibility: 6 or more miles (10+ km)
Ceiling: ceiling and visibility are OK
Clouds: unknown
Weather: no significant weather observed at this time

METAR text: EDDF 221320Z VRB03KT CAVOK 24/09 Q1010 NOSIG
Conditions at: EDDF (FRANKFURT MAIN A, DE) observed 1320 UTC 22 September 2019
Temperature: 24.0°C (75°F)
Dewpoint: 9.0°C (48°F) [RH = 38%]
Pressure (altimeter): 29.82 inches Hg (1010.0 mb)
Winds: variable direction winds at 3 MPH (3 knots; 1.5 m/s)
Visibility: 6 or more miles (10+ km)
Ceiling: ceiling and visibility are OK
Clouds: unknown
Weather: no significant weather observed at this time

METAR text: EDDF 221250Z VRB03KT CAVOK 24/08 Q1010 NOSIG
Conditions at: EDDF (FRANKFURT MAIN A, DE) observed 1250 UTC 22 September 2019
Temperature: 24.0°C (75°F)
Dewpoint: 8.0°C (46°F) [RH = 36%]
Pressure (altimeter): 29.82 inches Hg (1010.0 mb)
Winds: variable direction winds at 3 MPH (3 knots; 1.5 m/s)
Visibility: 6 or more miles (10+ km)
Ceiling: ceiling and visibility are OK
Clouds: unknown
Weather: no significant weather observed at this time

METAR text: EDDF 221220Z VRB03KT CAVOK 23/08 Q1010 NOSIG
Conditions at: EDDF (FRANKFURT MAIN A, DE) observed 1220 UTC 22 September 2019
Temperature: 23.0°C (73°F)
Dewpoint: 8.0°C (46°F) [RH = 38%]
Pressure (altimeter): 29.82 inches Hg (1010.0 mb)
Winds: variable direction winds at 3 MPH (3 knots; 1.5 m/s)
Visibility: 6 or more miles (10+ km)
Ceiling: ceiling and visibility are OK
Clouds: unknown
Weather: no significant weather observed at this time

METAR text: EDDF 221150Z VRB04KT CAVOK 23/08 Q1011 NOSIG
Conditions at: EDDF (FRANKFURT MAIN A, DE) observed 1150 UTC 22 September 2019
Temperature: 23.0°C (73°F)
Dewpoint: 8.0°C (46°F) [RH = 38%]
Pressure (altimeter): 29.85 inches Hg (1011.0 mb)
Winds: variable direction winds at 5 MPH (4 knots; 2.1 m/s)
Visibility: 6 or more miles (10+ km)
Ceiling: ceiling and visibility are OK
Clouds: unknown
Weather: no significant weather observed at this time

METAR text: EDDF 221120Z VRB02KT CAVOK 22/08 Q1011 NOSIG
Conditions at: EDDF (FRANKFURT MAIN A, DE) observed 1120 UTC 22 September 2019
Temperature: 22.0°C (72°F)
Dewpoint: 8.0°C (46°F) [RH = 41%]
Pressure (altimeter): 29.85 inches Hg (1011.0 mb)
Winds: variable direction winds at 2 MPH (2 knots; 1.0 m/s)
Visibility: 6 or more miles (10+ km)
Ceiling: ceiling and visibility are OK
Clouds: unknown
Weather: no significant weather observed at this time

METAR text: EDDF 221050Z VRB02KT CAVOK 21/08 Q1011 NOSIG
Conditions at: EDDF (FRANKFURT MAIN A, DE) observed 1050 UTC 22 September 2019
Temperature: 21.0°C (70°F)
Dewpoint: 8.0°C (46°F) [RH = 43%]
Pressure (altimeter): 29.85 inches Hg (1011.0 mb)
Winds: variable direction winds at 2 MPH (2 knots; 1.0 m/s)
Visibility: 6 or more miles (10+ km)
Ceiling: ceiling and visibility are OK
Clouds: unknown
Weather: no significant weather observed at this time

METAR text: EDDF 221020Z VRB02KT CAVOK 21/08 Q1012 NOSIG
Conditions at: EDDF (FRANKFURT MAIN A, DE) observed 1020 UTC 22 September 2019
Temperature: 21.0°C (70°F)
Dewpoint: 8.0°C (46°F) [RH = 43%]
Pressure (altimeter): 29.88 inches Hg (1012.0 mb)
Winds: variable direction winds at 2 MPH (2 knots; 1.0 m/s)
Visibility: 6 or more miles (10+ km)
Ceiling: ceiling and visibility are OK
Clouds: unknown
Weather: no significant weather observed at this time

METAR text: EDDF 220950Z 05004KT 350V120 CAVOK 20/08 Q1012 NOSIG
Conditions at: EDDF (FRANKFURT MAIN A, DE) observed 0950 UTC 22 September 2019
Temperature: 20.0°C (68°F)
Dewpoint: 8.0°C (46°F) [RH = 46%]
Pressure (altimeter): 29.88 inches Hg (1012.0 mb)
Winds: from the NE (50 degrees) at 5 MPH (4 knots; 2.1 m/s)
Visibility: 6 or more miles (10+ km)
Ceiling: ceiling and visibility are OK
Clouds: unknown
Weather: no significant weather observed at this time

METAR text: EDDF 220920Z 10003KT 040V150 CAVOK 19/08 Q1012 NOSIG
Conditions at: EDDF (FRANKFURT MAIN A, DE) observed 0920 UTC 22 September 2019
Temperature: 19.0°C (66°F)
Dewpoint: 8.0°C (46°F) [RH = 49%]
Pressure (altimeter): 29.88 inches Hg (1012.0 mb)
Winds: from the E (100 degrees) at 3 MPH (3 knots; 1.5 m/s)
Visibility: 6 or more miles (10+ km)
Ceiling: ceiling and visibility are OK
Clouds: unknown
Weather: no significant weather observed at this time

METAR text: EDDF 220850Z 06005KT 020V090 CAVOK 17/07 Q1013 NOSIG
Conditions at: EDDF (FRANKFURT MAIN A, DE) observed 0850 UTC 22 September 2019
Temperature: 17.0°C (63°F)
Dewpoint: 7.0°C (45°F) [RH = 52%]
Pressure (altimeter): 29.91 inches Hg (1013.0 mb)
Winds: from the ENE (60 degrees) at 6 MPH (5 knots; 2.6 m/s)
Visibility: 6 or more miles (10+ km)
Ceiling: ceiling and visibility are OK
Clouds: unknown
Weather: no significant weather observed at this time

METAR text: EDDF 220820Z 08004KT 010V140 CAVOK 17/07 Q1013 NOSIG
Conditions at: EDDF (FRANKFURT MAIN A, DE) observed 0820 UTC 22 September 2019
Temperature: 17.0°C (63°F)
Dewpoint: 7.0°C (45°F) [RH = 52%]
Pressure (altimeter): 29.91 inches Hg (1013.0 mb)
Winds: from the E (80 degrees) at 5 MPH (4 knots; 2.1 m/s)
Visibility: 6 or more miles (10+ km)
Ceiling: ceiling and visibility are OK
Clouds: unknown
Weather: no significant weather observed at this time

METAR text: EDDF 220750Z 05007KT CAVOK 16/07 Q1013 NOSIG
Conditions at: EDDF (FRANKFURT MAIN A, DE) observed 0750 UTC 22 September 2019
Temperature: 16.0°C (61°F)
Dewpoint: 7.0°C (45°F) [RH = 55%]
Pressure (altimeter): 29.91 inches Hg (1013.0 mb)
Winds: from the NE (50 degrees) at 8 MPH (7 knots; 3.6 m/s)
Visibility: 6 or more miles (10+ km)
Ceiling: ceiling and visibility are OK
Clouds: unknown
Weather: no significant weather observed at this time

METAR text: EDDF 220720Z 05006KT CAVOK 15/07 Q1013 NOSIG
Conditions at: EDDF (FRANKFURT MAIN A, DE) observed 0720 UTC 22 September 2019
Temperature: 15.0°C (59°F)
Dewpoint: 7.0°C (45°F) [RH = 59%]
Pressure (altimeter): 29.91 inches Hg (1013.0 mb)
Winds: from the NE (50 degrees) at 7 MPH (6 knots; 3.1 m/s)
Visibility: 6 or more miles (10+ km)
Ceiling: ceiling and visibility are OK
Clouds: unknown
Weather: no significant weather observed at this time

METAR text: EDDF 220650Z 02007KT 350V060 CAVOK 14/06 Q1013 NOSIG
Conditions at: EDDF (FRANKFURT MAIN A, DE) observed 0650 UTC 22 September 2019
Temperature: 14.0°C (57°F)
Dewpoint: 6.0°C (43°F) [RH = 58%]
Pressure (altimeter): 29.91 inches Hg (1013.0 mb)
Winds: from the NNE (20 degrees) at 8 MPH (7 knots; 3.6 m/s)
Visibility: 6 or more miles (10+ km)
Ceiling: ceiling and visibility are OK
Clouds: unknown
Weather: no significant weather observed at this time

METAR text: EDDF 220620Z 04009KT CAVOK 13/06 Q1013 NOSIG
Conditions at: EDDF (FRANKFURT MAIN A, DE) observed 0620 UTC 22 September 2019
Temperature: 13.0°C (55°F)
Dewpoint: 6.0°C (43°F) [RH = 62%]
Pressure (altimeter): 29.91 inches Hg (1013.0 mb)
Winds: from the NE (40 degrees) at 10 MPH (9 knots; 4.6 m/s)
Visibility: 6 or more miles (10+ km)
Ceiling: ceiling and visibility are OK
Clouds: unknown
Weather: no significant weather observed at this time

METAR text: EDDF 220550Z 02008KT CAVOK 12/06 Q1013 NOSIG
Conditions at: EDDF (FRANKFURT MAIN A, DE) observed 0550 UTC 22 September 2019
Temperature: 12.0°C (54°F)
Dewpoint: 6.0°C (43°F) [RH = 67%]
Pressure (altimeter): 29.91 inches Hg (1013.0 mb)
Winds: from the NNE (20 degrees) at 9 MPH (8 knots; 4.1 m/s)
Visibility: 6 or more miles (10+ km)
Ceiling: ceiling and visibility are OK
Clouds: unknown
Weather: no significant weather observed at this time

METAR text: EDDF 220520Z 02006KT CAVOK 11/06 Q1013 NOSIG
Conditions at: EDDF (FRANKFURT MAIN A, DE) observed 0520 UTC 22 September 2019
Temperature: 11.0°C (52°F)
Dewpoint: 6.0°C (43°F) [RH = 71%]
Pressure (altimeter): 29.91 inches Hg (1013.0 mb)
Winds: from the NNE (20 degrees) at 7 MPH (6 knots; 3.1 m/s)
Visibility: 6 or more miles (10+ km)
Ceiling: ceiling and visibility are OK
Clouds: unknown
Weather: no significant weather observed at this time

METAR text: EDDF 220450Z 03008KT CAVOK 12/06 Q1013 NOSIG
Conditions at: EDDF (FRANKFURT MAIN A, DE) observed 0450 UTC 22 September 2019
Temperature: 12.0°C (54°F)
Dewpoint: 6.0°C (43°F) [RH = 67%]
Pressure (altimeter): 29.91 inches Hg (1013.0 mb)
Winds: from the NNE (30 degrees) at 9 MPH (8 knots; 4.1 m/s)
Visibility: 6 or more miles (10+ km)
Ceiling: ceiling and visibility are OK
Clouds: unknown
Weather: no significant weather observed at this time

METAR text: EDDF 220420Z 05004KT CAVOK 11/06 Q1013 NOSIG
Conditions at: EDDF (FRANKFURT MAIN A, DE) observed 0420 UTC 22 September 2019
Temperature: 11.0°C (52°F)
Dewpoint: 6.0°C (43°F) [RH = 71%]
Pressure (altimeter): 29.91 inches Hg (1013.0 mb)
Winds: from the NE (50 degrees) at 5 MPH (4 knots; 2.1 m/s)
Visibility: 6 or more miles (10+ km)
Ceiling: ceiling and visibility are OK
Clouds: unknown
Weather: no significant weather observed at this time

METAR text: EDDF 220350Z 03005KT CAVOK 12/06 Q1013 NOSIG
Conditions at: EDDF (FRANKFURT MAIN A, DE) observed 0350 UTC 22 September 2019
Temperature: 12.0°C (54°F)
Dewpoint: 6.0°C (43°F) [RH = 67%]
Pressure (altimeter): 29.91 inches Hg (1013.0 mb)
Winds: from the NNE (30 degrees) at 6 MPH (5 knots; 2.6 m/s)
Visibility: 6 or more miles (10+ km)
Ceiling: ceiling and visibility are OK
Clouds: unknown
Weather: no significant weather observed at this time

METAR text: EDDF 220320Z 03007KT 360V060 CAVOK 12/06 Q1013 NOSIG
Conditions at: EDDF (FRANKFURT MAIN A, DE) observed 0320 UTC 22 September 2019
Temperature: 12.0°C (54°F)
Dewpoint: 6.0°C (43°F) [RH = 67%]
Pressure (altimeter): 29.91 inches Hg (1013.0 mb)
Winds: from the NNE (30 degrees) at 8 MPH (7 knots; 3.6 m/s)
Visibility: 6 or more miles (10+ km)
Ceiling: ceiling and visibility are OK
Clouds: unknown
Weather: no significant weather observed at this time

METAR text: EDDF 220250Z 02005KT CAVOK 12/06 Q1013 NOSIG
Conditions at: EDDF (FRANKFURT MAIN A, DE) observed 0250 UTC 22 September 2019
Temperature: 12.0°C (54°F)
Dewpoint: 6.0°C (43°F) [RH = 67%]
Pressure (altimeter): 29.91 inches Hg (1013.0 mb)
Winds: from the NNE (20 degrees) at 6 MPH (5 knots; 2.6 m/s)
Visibility: 6 or more miles (10+ km)
Ceiling: ceiling and visibility are OK
Clouds: unknown
Weather: no significant weather observed at this time

METAR text: EDDF 220220Z 01005KT 350V060 CAVOK 12/06 Q1013 NOSIG
Conditions at: EDDF (FRANKFURT MAIN A, DE) observed 0220 UTC 22 September 2019
Temperature: 12.0°C (54°F)
Dewpoint: 6.0°C (43°F) [RH = 67%]
Pressure (altimeter): 29.91 inches Hg (1013.0 mb)
Winds: from the N (10 degrees) at 6 MPH (5 knots; 2.6 m/s)
Visibility: 6 or more miles (10+ km)
Ceiling: ceiling and visibility are OK
Clouds: unknown
Weather: no significant weather observed at this time

METAR text: EDDF 220150Z 02004KT 350V090 CAVOK 12/06 Q1013 NOSIG
Conditions at: EDDF (FRANKFURT MAIN A, DE) observed 0150 UTC 22 September 2019
Temperature: 12.0°C (54°F)
Dewpoint: 6.0°C (43°F) [RH = 67%]
Pressure (altimeter): 29.91 inches Hg (1013.0 mb)
Winds: from the NNE (20 degrees) at 5 MPH (4 knots; 2.1 m/s)
Visibility: 6 or more miles (10+ km)
Ceiling: ceiling and visibility are OK
Clouds: unknown
Weather: no significant weather observed at this time

METAR text: EDDF 220120Z 02004KT CAVOK 12/06 Q1014 NOSIG
Conditions at: EDDF (FRANKFURT MAIN A, DE) observed 0120 UTC 22 September 2019
Temperature: 12.0°C (54°F)
Dewpoint: 6.0°C (43°F) [RH = 67%]
Pressure (altimeter): 29.94 inches Hg (1014.0 mb)
Winds: from the NNE (20 degrees) at 5 MPH (4 knots; 2.1 m/s)
Visibility: 6 or more miles (10+ km)
Ceiling: ceiling and visibility are OK
Clouds: unknown
Weather: no significant weather observed at this time

METAR text: EDDF 220050Z 01006KT CAVOK 12/06 Q1014 NOSIG
Conditions at: EDDF (FRANKFURT MAIN A, DE) observed 0050 UTC 22 September 2019
Temperature: 12.0°C (54°F)
Dewpoint: 6.0°C (43°F) [RH = 67%]
Pressure (altimeter): 29.94 inches Hg (1014.0 mb)
Winds: from the N (10 degrees) at 7 MPH (6 knots; 3.1 m/s)
Visibility: 6 or more miles (10+ km)
Ceiling: ceiling and visibility are OK
Clouds: unknown
Weather: no significant weather observed at this time

METAR text: EDDF 220020Z 01005KT 360V070 CAVOK 13/06 Q1014 NOSIG
Conditions at: EDDF (FRANKFURT MAIN A, DE) observed 0020 UTC 22 September 2019
Temperature: 13.0°C (55°F)
Dewpoint: 6.0°C (43°F) [RH = 62%]
Pressure (altimeter): 29.94 inches Hg (1014.0 mb)
Winds: from the N (10 degrees) at 6 MPH (5 knots; 2.6 m/s)
Visibility: 6 or more miles (10+ km)
Ceiling: ceiling and visibility are OK
Clouds: unknown
Weather: no significant weather observed at this time

METAR text: EDDF 212350Z VRB02KT CAVOK 11/05 Q1014 NOSIG
Conditions at: EDDF (FRANKFURT MAIN A, DE) observed 2350 UTC 21 September 2019
Temperature: 11.0°C (52°F)
Dewpoint: 5.0°C (41°F) [RH = 66%]
Pressure (altimeter): 29.94 inches Hg (1014.0 mb)
Winds: variable direction winds at 2 MPH (2 knots; 1.0 m/s)
Visibility: 6 or more miles (10+ km)
Ceiling: ceiling and visibility are OK
Clouds: unknown
Weather: no significant weather observed at this time

METAR text: EDDF 212320Z 08004KT CAVOK 11/05 Q1014 NOSIG
Conditions at: EDDF (FRANKFURT MAIN A, DE) observed 2320 UTC 21 September 2019
Temperature: 11.0°C (52°F)
Dewpoint: 5.0°C (41°F) [RH = 66%]
Pressure (altimeter): 29.94 inches Hg (1014.0 mb)
Winds: from the E (80 degrees) at 5 MPH (4 knots; 2.1 m/s)
Visibility: 6 or more miles (10+ km)
Ceiling: ceiling and visibility are OK
Clouds: unknown
Weather: no significant weather observed at this time

METAR text: EDDF 212250Z 08005KT CAVOK 12/05 Q1014 NOSIG
Conditions at: EDDF (FRANKFURT MAIN A, DE) observed 2250 UTC 21 September 2019
Temperature: 12.0°C (54°F)
Dewpoint: 5.0°C (41°F) [RH = 62%]
Pressure (altimeter): 29.94 inches Hg (1014.0 mb)
Winds: from the E (80 degrees) at 6 MPH (5 knots; 2.6 m/s)
Visibility: 6 or more miles (10+ km)
Ceiling: ceiling and visibility are OK
Clouds: unknown
Weather: no significant weather observed at this time

METAR text: EDDF 212220Z 07006KT CAVOK 13/05 Q1015 NOSIG
Conditions at: EDDF (FRANKFURT MAIN A, DE) observed 2220 UTC 21 September 2019
Temperature: 13.0°C (55°F)
Dewpoint: 5.0°C (41°F) [RH = 58%]
Pressure (altimeter): 29.97 inches Hg (1015.0 mb)
Winds: from the ENE (70 degrees) at 7 MPH (6 knots; 3.1 m/s)
Visibility: 6 or more miles (10+ km)
Ceiling: ceiling and visibility are OK
Clouds: unknown
Weather: no significant weather observed at this time

METAR text: EDDF 212150Z 09005KT CAVOK 13/05 Q1015 NOSIG
Conditions at: EDDF (FRANKFURT MAIN A, DE) observed 2150 UTC 21 September 2019
Temperature: 13.0°C (55°F)
Dewpoint: 5.0°C (41°F) [RH = 58%]
Pressure (altimeter): 29.97 inches Hg (1015.0 mb)
Winds: from the E (90 degrees) at 6 MPH (5 knots; 2.6 m/s)
Visibility: 6 or more miles (10+ km)
Ceiling: ceiling and visibility are OK
Clouds: unknown
Weather: no significant weather observed at this time

METAR text: EDDF 212120Z 08007KT CAVOK 15/05 Q1015 NOSIG
Conditions at: EDDF (FRANKFURT MAIN A, DE) observed 2120 UTC 21 September 2019
Temperature: 15.0°C (59°F)
Dewpoint: 5.0°C (41°F) [RH = 51%]
Pressure (altimeter): 29.97 inches Hg (1015.0 mb)
Winds: from the E (80 degrees) at 8 MPH (7 knots; 3.6 m/s)
Visibility: 6 or more miles (10+ km)
Ceiling: ceiling and visibility are OK
Clouds: unknown
Weather: no significant weather observed at this time

METAR text: EDDF 212050Z 08008KT CAVOK 17/05 Q1015 NOSIG
Conditions at: EDDF (FRANKFURT MAIN A, DE) observed 2050 UTC 21 September 2019
Temperature: 17.0°C (63°F)
Dewpoint: 5.0°C (41°F) [RH = 45%]
Pressure (altimeter): 29.97 inches Hg (1015.0 mb)
Winds: from the E (80 degrees) at 9 MPH (8 knots; 4.1 m/s)
Visibility: 6 or more miles (10+ km)
Ceiling: ceiling and visibility are OK
Clouds: unknown
Weather: no significant weather observed at this time

METAR text: EDDF 212020Z 08007KT CAVOK 18/05 Q1015 NOSIG
Conditions at: EDDF (FRANKFURT MAIN A, DE) observed 2020 UTC 21 September 2019
Temperature: 18.0°C (64°F)
Dewpoint: 5.0°C (41°F) [RH = 42%]
Pressure (altimeter): 29.97 inches Hg (1015.0 mb)
Winds: from the E (80 degrees) at 8 MPH (7 knots; 3.6 m/s)
Visibility: 6 or more miles (10+ km)
Ceiling: ceiling and visibility are OK
Clouds: unknown
Weather: no significant weather observed at this time

METAR text: EDDF 211950Z 08006KT CAVOK 18/05 Q1016 NOSIG
Conditions at: EDDF (FRANKFURT MAIN A, DE) observed 1950 UTC 21 September 2019
Temperature: 18.0°C (64°F)
Dewpoint: 5.0°C (41°F) [RH = 42%]
Pressure (altimeter): 30.00 inches Hg (1016.0 mb)
Winds: from the E (80 degrees) at 7 MPH (6 knots; 3.1 m/s)
Visibility: 6 or more miles (10+ km)
Ceiling: ceiling and visibility are OK
Clouds: unknown
Weather: no significant weather observed at this time

METAR text: EDDF 211920Z 08005KT 020V090 CAVOK 16/05 Q1016 NOSIG
Conditions at: EDDF (FRANKFURT MAIN A, DE) observed 1920 UTC 21 September 2019
Temperature: 16.0°C (61°F)
Dewpoint: 5.0°C (41°F) [RH = 48%]
Pressure (altimeter): 30.00 inches Hg (1016.0 mb)
Winds: from the E (80 degrees) at 6 MPH (5 knots; 2.6 m/s)
Visibility: 6 or more miles (10+ km)
Ceiling: ceiling and visibility are OK
Clouds: unknown
Weather: no significant weather observed at this time

METAR text: EDDF 211850Z 08006KT CAVOK 18/05 Q1016 NOSIG
Conditions at: EDDF (FRANKFURT MAIN A, DE) observed 1850 UTC 21 September 2019
Temperature: 18.0°C (64°F)
Dewpoint: 5.0°C (41°F) [RH = 42%]
Pressure (altimeter): 30.00 inches Hg (1016.0 mb)
Winds: from the E (80 degrees) at 7 MPH (6 knots; 3.1 m/s)
Visibility: 6 or more miles (10+ km)
Ceiling: ceiling and visibility are OK
Clouds: unknown
Weather: no significant weather observed at this time

METAR text: EDDF 211820Z 08005KT CAVOK 20/04 Q1016 NOSIG
Conditions at: EDDF (FRANKFURT MAIN A, DE) observed 1820 UTC 21 September 2019
Temperature: 20.0°C (68°F)
Dewpoint: 4.0°C (39°F) [RH = 35%]
Pressure (altimeter): 30.00 inches Hg (1016.0 mb)
Winds: from the E (80 degrees) at 6 MPH (5 knots; 2.6 m/s)
Visibility: 6 or more miles (10+ km)
Ceiling: ceiling and visibility are OK
Clouds: unknown
Weather: no significant weather observed at this time

METAR text: EDDF 211750Z 07005KT CAVOK 22/04 Q1016 NOSIG
Conditions at: EDDF (FRANKFURT MAIN A, DE) observed 1750 UTC 21 September 2019
Temperature: 22.0°C (72°F)
Dewpoint: 4.0°C (39°F) [RH = 31%]
Pressure (altimeter): 30.00 inches Hg (1016.0 mb)
Winds: from the ENE (70 degrees) at 6 MPH (5 knots; 2.6 m/s)
Visibility: 6 or more miles (10+ km)
Ceiling: ceiling and visibility are OK
Clouds: unknown
Weather: no significant weather observed at this time

METAR text: EDDF 211720Z 12004KT CAVOK 23/04 Q1016 NOSIG
Conditions at: EDDF (FRANKFURT MAIN A, DE) observed 1720 UTC 21 September 2019
Temperature: 23.0°C (73°F)
Dewpoint: 4.0°C (39°F) [RH = 29%]
Pressure (altimeter): 30.00 inches Hg (1016.0 mb)
Winds: from the ESE (120 degrees) at 5 MPH (4 knots; 2.1 m/s)
Visibility: 6 or more miles (10+ km)
Ceiling: ceiling and visibility are OK
Clouds: unknown
Weather: no significant weather observed at this time

METAR text: EDDF 211650Z 12006KT 090V150 CAVOK 23/04 Q1016 NOSIG
Conditions at: EDDF (FRANKFURT MAIN A, DE) observed 1650 UTC 21 September 2019
Temperature: 23.0°C (73°F)
Dewpoint: 4.0°C (39°F) [RH = 29%]
Pressure (altimeter): 30.00 inches Hg (1016.0 mb)
Winds: from the ESE (120 degrees) at 7 MPH (6 knots; 3.1 m/s)
Visibility: 6 or more miles (10+ km)
Ceiling: ceiling and visibility are OK
Clouds: unknown
Weather: no significant weather observed at this time

METAR text: EDDF 211620Z 09007KT 060V190 CAVOK 24/03 Q1016 NOSIG
Conditions at: EDDF (FRANKFURT MAIN A, DE) observed 1620 UTC 21 September 2019
Temperature: 24.0°C (75°F)
Dewpoint: 3.0°C (37°F) [RH = 25%]
Pressure (altimeter): 30.00 inches Hg (1016.0 mb)
Winds: from the E (90 degrees) at 8 MPH (7 knots; 3.6 m/s)
Visibility: 6 or more miles (10+ km)
Ceiling: ceiling and visibility are OK
Clouds: unknown
Weather: no significant weather observed at this time

METAR text: EDDF 211550Z 09009KT CAVOK 24/03 Q1016 NOSIG
Conditions at: EDDF (FRANKFURT MAIN A, DE) observed 1550 UTC 21 September 2019
Temperature: 24.0°C (75°F)
Dewpoint: 3.0°C (37°F) [RH = 25%]
Pressure (altimeter): 30.00 inches Hg (1016.0 mb)
Winds: from the E (90 degrees) at 10 MPH (9 knots; 4.6 m/s)
Visibility: 6 or more miles (10+ km)
Ceiling: ceiling and visibility are OK
Clouds: unknown
Weather: no significant weather observed at this time

METAR text: EDDF 211520Z 09009KT 070V130 CAVOK 24/03 Q1017 NOSIG
Conditions at: EDDF (FRANKFURT MAIN A, DE) observed 1520 UTC 21 September 2019
Temperature: 24.0°C (75°F)
Dewpoint: 3.0°C (37°F) [RH = 25%]
Pressure (altimeter): 30.03 inches Hg (1017.0 mb)
Winds: from the E (90 degrees) at 10 MPH (9 knots; 4.6 m/s)
Visibility: 6 or more miles (10+ km)
Ceiling: ceiling and visibility are OK
Clouds: unknown
Weather: no significant weather observed at this time

METAR text: EDDF 211450Z 12010KT 070V150 CAVOK 24/03 Q1017 NOSIG
Conditions at: EDDF (FRANKFURT MAIN A, DE) observed 1450 UTC 21 September 2019
Temperature: 24.0°C (75°F)
Dewpoint: 3.0°C (37°F) [RH = 25%]
Pressure (altimeter): 30.03 inches Hg (1017.0 mb)
Winds: from the ESE (120 degrees) at 12 MPH (10 knots; 5.1 m/s)
Visibility: 6 or more miles (10+ km)
Ceiling: ceiling and visibility are OK
Clouds: unknown
Weather: no significant weather observed at this time

METAR text: EDDF 211420Z 09011KT 040V130 CAVOK 24/03 Q1017 NOSIG
Conditions at: EDDF (FRANKFURT MAIN A, DE) observed 1420 UTC 21 September 2019
Temperature: 24.0°C (75°F)
Dewpoint: 3.0°C (37°F) [RH = 25%]
Pressure (altimeter): 30.03 inches Hg (1017.0 mb)
Winds: from the E (90 degrees) at 13 MPH (11 knots; 5.7 m/s)
Visibility: 6 or more miles (10+ km)
Ceiling: ceiling and visibility are OK
Clouds: unknown
Weather: no significant weather observed at this time

METAR text: EDDF 211350Z 08009KT 050V130 CAVOK 24/03 Q1018 NOSIG
Conditions at: EDDF (FRANKFURT MAIN A, DE) observed 1350 UTC 21 September 2019
Temperature: 24.0°C (75°F)
Dewpoint: 3.0°C (37°F) [RH = 25%]
Pressure (altimeter): 30.06 inches Hg (1018.0 mb)
Winds: from the E (80 degrees) at 10 MPH (9 knots; 4.6 m/s)
Visibility: 6 or more miles (10+ km)
Ceiling: ceiling and visibility are OK
Clouds: unknown
Weather: no significant weather observed at this time

METAR text: EDDF 211320Z 09011KT 050V130 CAVOK 24/03 Q1018 NOSIG
Conditions at: EDDF (FRANKFURT MAIN A, DE) observed 1320 UTC 21 September 2019
Temperature: 24.0°C (75°F)
Dewpoint: 3.0°C (37°F) [RH = 25%]
Pressure (altimeter): 30.06 inches Hg (1018.0 mb)
Winds: from the E (90 degrees) at 13 MPH (11 knots; 5.7 m/s)
Visibility: 6 or more miles (10+ km)
Ceiling: ceiling and visibility are OK
Clouds: unknown
Weather: no significant weather observed at this time

METAR text: EDDF 211250Z 12011KT 090V160 CAVOK 23/02 Q1019 NOSIG
Conditions at: EDDF (FRANKFURT MAIN A, DE) observed 1250 UTC 21 September 2019
Temperature: 23.0°C (73°F)
Dewpoint: 2.0°C (36°F) [RH = 25%]
Pressure (altimeter): 30.09 inches Hg (1019.0 mb)
Winds: from the ESE (120 degrees) at 13 MPH (11 knots; 5.7 m/s)
Visibility: 6 or more miles (10+ km)
Ceiling: ceiling and visibility are OK
Clouds: unknown
Weather: no significant weather observed at this time

METAR text: EDDF 211220Z 09013KT 070V130 CAVOK 23/01 Q1019 NOSIG
Conditions at: EDDF (FRANKFURT MAIN A, DE) observed 1220 UTC 21 September 2019
Temperature: 23.0°C (73°F)
Dewpoint: 1.0°C (34°F) [RH = 23%]
Pressure (altimeter): 30.09 inches Hg (1019.0 mb)
Winds: from the E (90 degrees) at 15 MPH (13 knots; 6.7 m/s)
Visibility: 6 or more miles (10+ km)
Ceiling: ceiling and visibility are OK
Clouds: unknown
Weather: no significant weather observed at this time

METAR text: EDDF 211150Z 09011KT 060V120 CAVOK 22/01 Q1020 NOSIG
Conditions at: EDDF (FRANKFURT MAIN A, DE) observed 1150 UTC 21 September 2019
Temperature: 22.0°C (72°F)
Dewpoint: 1.0°C (34°F) [RH = 25%]
Pressure (altimeter): 30.12 inches Hg (1020.0 mb)
Winds: from the E (90 degrees) at 13 MPH (11 knots; 5.7 m/s)
Visibility: 6 or more miles (10+ km)
Ceiling: ceiling and visibility are OK
Clouds: unknown
Weather: no significant weather observed at this time

METAR text: EDDF 211120Z 08010KT 050V160 CAVOK 22/02 Q1020 NOSIG
Conditions at: EDDF (FRANKFURT MAIN A, DE) observed 1120 UTC 21 September 2019
Temperature: 22.0°C (72°F)
Dewpoint: 2.0°C (36°F) [RH = 27%]
Pressure (altimeter): 30.12 inches Hg (1020.0 mb)
Winds: from the E (80 degrees) at 12 MPH (10 knots; 5.1 m/s)
Visibility: 6 or more miles (10+ km)
Ceiling: ceiling and visibility are OK
Clouds: unknown
Weather: no significant weather observed at this time

METAR text: EDDF 211050Z 09012KT 050V120 CAVOK 20/02 Q1021 NOSIG
Conditions at: EDDF (FRANKFURT MAIN A, DE) observed 1050 UTC 21 September 2019
Temperature: 20.0°C (68°F)
Dewpoint: 2.0°C (36°F) [RH = 30%]
Pressure (altimeter): 30.15 inches Hg (1021.0 mb)
Winds: from the E (90 degrees) at 14 MPH (12 knots; 6.2 m/s)
Visibility: 6 or more miles (10+ km)
Ceiling: ceiling and visibility are OK
Clouds: unknown
Weather: no significant weather observed at this time

METAR text: EDDF 211020Z 09009KT CAVOK 19/03 Q1021 NOSIG
Conditions at: EDDF (FRANKFURT MAIN A, DE) observed 1020 UTC 21 September 2019
Temperature: 19.0°C (66°F)
Dewpoint: 3.0°C (37°F) [RH = 34%]
Pressure (altimeter): 30.15 inches Hg (1021.0 mb)
Winds: from the E (90 degrees) at 10 MPH (9 knots; 4.6 m/s)
Visibility: 6 or more miles (10+ km)
Ceiling: ceiling and visibility are OK
Clouds: unknown
Weather: no significant weather observed at this time

METAR text: EDDF 210950Z 08009KT 040V130 CAVOK 18/04 Q1021 NOSIG
Conditions at: EDDF (FRANKFURT MAIN A, DE) observed 0950 UTC 21 September 2019
Temperature: 18.0°C (64°F)
Dewpoint: 4.0°C (39°F) [RH = 39%]
Pressure (altimeter): 30.15 inches Hg (1021.0 mb)
Winds: from the E (80 degrees) at 10 MPH (9 knots; 4.6 m/s)
Visibility: 6 or more miles (10+ km)
Ceiling: ceiling and visibility are OK
Clouds: unknown
Weather: no significant weather observed at this time

METAR text: EDDF 210920Z 08008KT CAVOK 17/04 Q1022 NOSIG
Conditions at: EDDF (FRANKFURT MAIN A, DE) observed 0920 UTC 21 September 2019
Temperature: 17.0°C (63°F)
Dewpoint: 4.0°C (39°F) [RH = 42%]
Pressure (altimeter): 30.18 inches Hg (1022.0 mb)
Winds: from the E (80 degrees) at 9 MPH (8 knots; 4.1 m/s)
Visibility: 6 or more miles (10+ km)
Ceiling: ceiling and visibility are OK
Clouds: unknown
Weather: no significant weather observed at this time

METAR text: EDDF 210850Z 08008KT CAVOK 15/04 Q1022 NOSIG
Conditions at: EDDF (FRANKFURT MAIN A, DE) observed 0850 UTC 21 September 2019
Temperature: 15.0°C (59°F)
Dewpoint: 4.0°C (39°F) [RH = 48%]
Pressure (altimeter): 30.18 inches Hg (1022.0 mb)
Winds: from the E (80 degrees) at 9 MPH (8 knots; 4.1 m/s)
Visibility: 6 or more miles (10+ km)
Ceiling: ceiling and visibility are OK
Clouds: unknown
Weather: no significant weather observed at this time

METAR text: EDDF 210820Z 07009KT CAVOK 14/04 Q1022 NOSIG
Conditions at: EDDF (FRANKFURT MAIN A, DE) observed 0820 UTC 21 September 2019
Temperature: 14.0°C (57°F)
Dewpoint: 4.0°C (39°F) [RH = 51%]
Pressure (altimeter): 30.18 inches Hg (1022.0 mb)
Winds: from the ENE (70 degrees) at 10 MPH (9 knots; 4.6 m/s)
Visibility: 6 or more miles (10+ km)
Ceiling: ceiling and visibility are OK
Clouds: unknown
Weather: no significant weather observed at this time

METAR text: EDDF 210750Z 07010KT CAVOK 13/04 Q1023 NOSIG
Conditions at: EDDF (FRANKFURT MAIN A, DE) observed 0750 UTC 21 September 2019
Temperature: 13.0°C (55°F)
Dewpoint: 4.0°C (39°F) [RH = 54%]
Pressure (altimeter): 30.21 inches Hg (1023.0 mb)
Winds: from the ENE (70 degrees) at 12 MPH (10 knots; 5.1 m/s)
Visibility: 6 or more miles (10+ km)
Ceiling: ceiling and visibility are OK
Clouds: unknown
Weather: no significant weather observed at this time

METAR text: EDDF 210720Z 06009KT CAVOK 12/04 Q1023 NOSIG
Conditions at: EDDF (FRANKFURT MAIN A, DE) observed 0720 UTC 21 September 2019
Temperature: 12.0°C (54°F)
Dewpoint: 4.0°C (39°F) [RH = 58%]
Pressure (altimeter): 30.21 inches Hg (1023.0 mb)
Winds: from the ENE (60 degrees) at 10 MPH (9 knots; 4.6 m/s)
Visibility: 6 or more miles (10+ km)
Ceiling: ceiling and visibility are OK
Clouds: unknown
Weather: no significant weather observed at this time

METAR text: EDDF 210650Z 06008KT CAVOK 10/04 Q1023 NOSIG
Conditions at: EDDF (FRANKFURT MAIN A, DE) observed 0650 UTC 21 September 2019
Temperature: 10.0°C (50°F)
Dewpoint: 4.0°C (39°F) [RH = 66%]
Pressure (altimeter): 30.21 inches Hg (1023.0 mb)
Winds: from the ENE (60 degrees) at 9 MPH (8 knots; 4.1 m/s)
Visibility: 6 or more miles (10+ km)
Ceiling: ceiling and visibility are OK
Clouds: unknown
Weather: no significant weather observed at this time

METAR text: EDDF 210620Z 07008KT CAVOK 09/04 Q1023 NOSIG
Conditions at: EDDF (FRANKFURT MAIN A, DE) observed 0620 UTC 21 September 2019
Temperature: 9.0°C (48°F)
Dewpoint: 4.0°C (39°F) [RH = 71%]
Pressure (altimeter): 30.21 inches Hg (1023.0 mb)
Winds: from the ENE (70 degrees) at 9 MPH (8 knots; 4.1 m/s)
Visibility: 6 or more miles (10+ km)
Ceiling: ceiling and visibility are OK
Clouds: unknown
Weather: no significant weather observed at this time

METAR text: EDDF 210550Z 07007KT CAVOK 08/03 Q1023 NOSIG
Conditions at: EDDF (FRANKFURT MAIN A, DE) observed 0550 UTC 21 September 2019
Temperature: 8.0°C (46°F)
Dewpoint: 3.0°C (37°F) [RH = 71%]
Pressure (altimeter): 30.21 inches Hg (1023.0 mb)
Winds: from the ENE (70 degrees) at 8 MPH (7 knots; 3.6 m/s)
Visibility: 6 or more miles (10+ km)
Ceiling: ceiling and visibility are OK
Clouds: unknown
Weather: no significant weather observed at this time

METAR text: EDDF 210520Z 07006KT CAVOK 06/03 Q1023 NOSIG
Conditions at: EDDF (FRANKFURT MAIN A, DE) observed 0520 UTC 21 September 2019
Temperature: 6.0°C (43°F)
Dewpoint: 3.0°C (37°F) [RH = 81%]
Pressure (altimeter): 30.21 inches Hg (1023.0 mb)
Winds: from the ENE (70 degrees) at 7 MPH (6 knots; 3.1 m/s)
Visibility: 6 or more miles (10+ km)
Ceiling: ceiling and visibility are OK
Clouds: unknown
Weather: no significant weather observed at this time

METAR text: EDDF 210450Z 07005KT CAVOK 06/03 Q1023 NOSIG
Conditions at: EDDF (FRANKFURT MAIN A, DE) observed 0450 UTC 21 September 2019
Temperature: 6.0°C (43°F)
Dewpoint: 3.0°C (37°F) [RH = 81%]
Pressure (altimeter): 30.21 inches Hg (1023.0 mb)
Winds: from the ENE (70 degrees) at 6 MPH (5 knots; 2.6 m/s)
Visibility: 6 or more miles (10+ km)
Ceiling: ceiling and visibility are OK
Clouds: unknown
Weather: no significant weather observed at this time

METAR text: EDDF 210420Z 07006KT CAVOK 06/03 Q1023 NOSIG
Conditions at: EDDF (FRANKFURT MAIN A, DE) observed 0420 UTC 21 September 2019
Temperature: 6.0°C (43°F)
Dewpoint: 3.0°C (37°F) [RH = 81%]
Pressure (altimeter): 30.21 inches Hg (1023.0 mb)
Winds: from the ENE (70 degrees) at 7 MPH (6 knots; 3.1 m/s)
Visibility: 6 or more miles (10+ km)
Ceiling: ceiling and visibility are OK
Clouds: unknown
Weather: no significant weather observed at this time

Forecast for: EDDF (FRANKFURT MAIN A, DE)
Text: TAF EDDF 221100Z 2212/2318 10005KT CAVOK
Forecast period: 1200 UTC 22 September 2019 to 1800 UTC 23 September 2019
Forecast type: FROM: standard forecast or significant change
Winds: from the E (100 degrees) at 6 MPH (5 knots; 2.6 m/s)
Visibility: 6 or more miles 10+ km)
Ceiling: unknown
Clouds: missing
Weather: NSW  (no significant weather)
Text: BECMG 2212/2215 16004KT
Forecast period: 1200 to 2300 UTC 22 September 2019
Forecast type: BECOMING: Conditions expected to become as follows by 1500 UTC 22 September 2019
Winds: from the SSE (160 degrees) at 5 MPH (4 knots; 2.1 m/s)
Visibility: 6 or more miles 10+ km)
Ceiling: unknown
Clouds: missing
Weather: NSW  (no significant weather)
Text: PROB40
Forecast period: 2000 UTC 22 September 2019 to 0200 UTC 23 September 2019
Forecast type: TEMPORARY: The following changes expected for less than half the time period
Visibility: missing
Ceiling: 4000 feet AGL
Clouds: broken clouds at 4000 feet AGL
Weather: SHRA  (rain showers)
Text: TEMPO 2220/2302 SHRA BKN040CB
Forecast period: 2300 UTC 22 September 2019 to 0000 UTC 23 September 2019
Forecast type: BECOMING: Conditions expected to become as follows by 0300 UTC 23 September 2019
Winds: from the WSW (240 degrees) at 8 MPH (7 knots; 3.6 m/s)
Visibility: 6 or more miles 10+ km)
Ceiling: unknown
Clouds: missing
Weather: NSW  (no significant weather)
Text: BECMG 2223/2303 24007KT
Forecast period: 0000 to 1300 UTC 23 September 2019
Forecast type: BECOMING: Conditions expected to become as follows by 0300 UTC 23 September 2019
Winds: from the WSW (240 degrees) at 8 MPH (7 knots; 3.6 m/s)
Visibility: 6 or more miles 10+ km)
Ceiling: 4000 feet AGL
Clouds: broken clouds at 4000 feet AGL
Weather: NSW  (no significant weather)
Text: BECMG 2300/2303 BKN040
Forecast period: 0200 to 1100 UTC 23 September 2019
Forecast type: TEMPORARY: The following changes expected for less than half the time period
Visibility: 2.49 miles (4.01 km)
Ceiling: 1400 feet AGL
Clouds: broken clouds at 1400 feet AGL
Weather: RA  (moderate rain)
Text: TEMPO 2302/2311 4000 RA BKN014
Forecast period: 0300 to 1000 UTC 23 September 2019
Forecast type: TEMPORARY: The following changes expected for less than half the time period
Visibility: missing
Ceiling: 500 feet AGL
Clouds: broken clouds at 500 feet AGL
Weather: no significant weather forecast for this period
Text: PROB30
Forecast period: 1300 to 1800 UTC 23 September 2019
Forecast type: BECOMING: Conditions expected to become as follows by 1600 UTC 23 September 2019
Winds: from the WSW (240 degrees) at 8 MPH (7 knots; 3.6 m/s)
Visibility: 6 or more miles 10+ km)
Ceiling: at least 12,000 feet AGL
Clouds: scattered clouds at 2000 feet AGL
Weather: NSW  (no significant weather)